»·PEaware :: N49060 KBLI-C72

N49060 :: KBLI-C72

FLIGHT INFORMATION

Flight Status: Arrived
Operator: Privately registered:
United States
More flights under this callsign
Pilot: Chris J. (41649)
Aircraft: CESSNA 172 SKYHAWK
(C172)
More flights by this aircraft type
Origin: KBLI Bellingham Intl
United States
Destination: C72 Cross Winds
United States
More flights between these airports :: More routes between these airports
Route: 3W5 6S9 S97 3W7
File this flight plan on PilotEdge
Remarks:
Altitude:
(Current/Filed)
8,500ft
Speed:
(Current/Filed)
110kts
Departed: 30-Dec-22 02:39 PM
Arrived: 30-Dec-22 04:35 PM
Distance/Time
Traveled:
206nm/1:56
Distance/Time
To Go:
Arrived

Flight Plot

Page will automatically refresh every two minutes.

Flight plan parsing failed; only flown route is shown


Map Options




Map Legend


Flown Route
Filed Route
Departure Airport
Arrival Airport
Navaid (VOR, NDB)
Fix

Horizontal Profiles

Position Reports

Time Latitude Longitude Heading Altitude Ground
Speed
30-Dec-22 14:25 48.792603 -122.533859 152 170ft 0kts
30-Dec-22 14:27 48.792603 -122.533859 152 170ft 0kts
30-Dec-22 14:27 48.792603 -122.533859 152 170ft 0kts
30-Dec-22 14:28 48.792603 -122.533859 152 170ft 0kts
30-Dec-22 14:29 48.792603 -122.533859 152 170ft 0kts
30-Dec-22 14:30 48.792603 -122.533859 152 170ft 0kts
30-Dec-22 14:31 48.792603 -122.533859 152 170ft 0kts
30-Dec-22 14:32 48.792603 -122.533859 152 170ft 0kts
30-Dec-22 14:33 48.792603 -122.533859 152 170ft 0kts
30-Dec-22 14:34 48.792603 -122.533859 152 170ft 0kts
30-Dec-22 14:35 48.791972 -122.534740 213 171ft 8kts
30-Dec-22 14:36 48.791071 -122.535857 204 171ft 13kts
30-Dec-22 14:37 48.785987 -122.535833 178 173ft 22kts
30-Dec-22 14:38 48.786664 -122.537507 358 174ft 64kts
30-Dec-22 14:39 48.810097 -122.535979 24 1086ft 90kts
30-Dec-22 14:40 48.807451 -122.507041 127 2027ft 91kts
30-Dec-22 14:41 48.797422 -122.471965 121 2922ft 88kts
30-Dec-22 14:42 48.785537 -122.437892 119 3775ft 92kts
30-Dec-22 14:43 48.768937 -122.408029 140 4532ft 97kts
30-Dec-22 14:44 48.755487 -122.374391 123 5253ft 95kts
30-Dec-22 14:45 48.742368 -122.340496 115 5939ft 95kts
30-Dec-22 14:46 48.731992 -122.303023 114 6567ft 96kts
30-Dec-22 14:47 48.721623 -122.265312 114 7186ft 97kts
30-Dec-22 14:48 48.713319 -122.226099 101 7776ft 101kts
30-Dec-22 14:49 48.701173 -122.188085 110 8349ft 100kts
30-Dec-22 14:50 48.690761 -122.148909 120 8918ft 100kts
30-Dec-22 14:51 48.679132 -122.109721 110 9361ft 102kts
30-Dec-22 14:52 48.666492 -122.070719 119 9452ft 104kts
30-Dec-22 14:53 48.653526 -122.031113 115 9510ft 105kts
30-Dec-22 15:04 48.500840 -121.590725 105 9541ft 112kts
30-Dec-22 15:05 48.492963 -121.545508 106 9540ft 110kts
30-Dec-22 15:06 48.485093 -121.500447 106 9542ft 111kts
30-Dec-22 15:07 48.477192 -121.455308 106 9544ft 112kts
30-Dec-22 15:08 48.469177 -121.409626 106 9541ft 113kts
30-Dec-22 15:09 48.461098 -121.363726 106 9545ft 114kts
30-Dec-22 15:10 48.452875 -121.317136 106 9545ft 115kts
30-Dec-22 15:11 48.444705 -121.270872 106 9532ft 112kts
30-Dec-22 15:12 48.436614 -121.225272 106 9537ft 113kts
30-Dec-22 15:13 48.428544 -121.179912 106 9544ft 113kts
30-Dec-22 15:14 48.420344 -121.133878 106 9542ft 113kts
30-Dec-22 15:15 48.412140 -121.087994 106 9552ft 115kts
30-Dec-22 15:16 48.403588 -121.040523 106 9538ft 116kts
30-Dec-22 15:17 48.395394 -120.994764 106 9551ft 114kts
30-Dec-22 15:18 48.387017 -120.948146 106 9526ft 113kts
30-Dec-22 15:19 48.378755 -120.902310 106 9538ft 112kts
30-Dec-22 15:20 48.370560 -120.857121 106 9553ft 115kts
30-Dec-22 15:21 48.362118 -120.810506 106 9539ft 114kts
30-Dec-22 15:22 48.353756 -120.764575 106 9539ft 113kts
30-Dec-22 15:23 48.345483 -120.719297 107 9545ft 113kts
30-Dec-22 15:24 48.334699 -120.674027 110 9554ft 118kts
30-Dec-22 15:25 48.323373 -120.625924 110 9545ft 122kts
30-Dec-22 15:26 48.312348 -120.579178 111 9536ft 114kts
30-Dec-22 15:27 48.301878 -120.535089 111 9525ft 109kts
30-Dec-22 15:28 48.291624 -120.491911 110 9565ft 112kts
30-Dec-22 15:29 48.281112 -120.447809 111 9531ft 110kts
30-Dec-22 15:30 48.270482 -120.403318 111 9543ft 120kts
30-Dec-22 15:31 48.258964 -120.355107 111 9541ft 125kts
30-Dec-22 15:32 48.247232 -120.306103 111 9544ft 124kts
30-Dec-22 15:33 48.234954 -120.255069 111 9172ft 134kts
30-Dec-22 15:34 48.222386 -120.202812 111 8689ft 134kts
30-Dec-22 15:35 48.209503 -120.149401 110 8172ft 136kts
30-Dec-22 15:36 48.196871 -120.097162 111 7668ft 129kts
30-Dec-22 15:37 48.185149 -120.048784 111 7505ft 119kts
30-Dec-22 15:38 48.173978 -120.002860 111 7504ft 117kts
30-Dec-22 15:39 48.162892 -119.957327 111 7500ft 115kts
30-Dec-22 15:40 48.151727 -119.911546 111 7509ft 119kts
30-Dec-22 15:41 48.140377 -119.865101 111 7496ft 117kts
30-Dec-22 15:42 48.129434 -119.820426 111 7499ft 113kts
30-Dec-22 15:43 48.118602 -119.776346 111 7509ft 113kts
30-Dec-22 15:44 48.107713 -119.732051 111 7497ft 113kts
30-Dec-22 15:45 48.095195 -119.686530 114 7338ft 119kts
30-Dec-22 15:46 48.082056 -119.639988 114 7045ft 128kts
30-Dec-22 15:47 48.067850 -119.589954 114 6540ft 131kts
30-Dec-22 15:48 48.053497 -119.539586 114 6032ft 131kts
30-Dec-22 15:49 48.039171 -119.489396 114 5571ft 128kts
30-Dec-22 15:50 48.025859 -119.442855 114 5503ft 116kts
30-Dec-22 15:51 48.013218 -119.398761 114 5505ft 115kts
30-Dec-22 15:52 48.000553 -119.354640 114 5502ft 115kts
30-Dec-22 15:53 47.987906 -119.310659 114 5501ft 115kts
30-Dec-22 15:54 47.975216 -119.266621 114 5501ft 115kts
30-Dec-22 15:55 47.962932 -119.224055 114 5500ft 108kts
30-Dec-22 15:56 47.951046 -119.182961 114 5500ft 107kts
30-Dec-22 15:57 47.939237 -119.142196 114 5501ft 107kts
30-Dec-22 15:58 47.927385 -119.101331 114 5508ft 108kts
30-Dec-22 15:59 47.923090 -119.057429 84 5504ft 110kts
30-Dec-22 16:00 47.925181 -119.011594 87 5498ft 111kts
30-Dec-22 16:01 47.927225 -118.966230 87 5498ft 108kts
30-Dec-22 16:02 47.929192 -118.920998 87 5508ft 110kts
30-Dec-22 16:03 47.931165 -118.875186 87 5497ft 109kts
30-Dec-22 16:04 47.933092 -118.830045 87 5498ft 108kts
30-Dec-22 16:05 47.935009 -118.784642 87 5503ft 110kts
30-Dec-22 16:06 47.936922 -118.739052 87 5493ft 109kts
30-Dec-22 16:07 47.938891 -118.691359 87 5499ft 119kts
30-Dec-22 16:08 47.940950 -118.641477 87 5507ft 121kts
30-Dec-22 16:09 47.943015 -118.590654 87 5505ft 124kts
30-Dec-22 16:10 47.945077 -118.539341 87 5498ft 123kts
30-Dec-22 16:11 47.947112 -118.488456 87 5495ft 119kts
30-Dec-22 16:12 47.949051 -118.439178 87 5494ft 117kts
30-Dec-22 16:13 47.950942 -118.390121 87 5499ft 118kts
30-Dec-22 16:14 47.952818 -118.341328 87 5497ft 116kts
30-Dec-22 16:15 47.954659 -118.292884 87 5506ft 118kts
30-Dec-22 16:16 47.956479 -118.244035 87 5504ft 118kts
30-Dec-22 16:17 47.958326 -118.194918 87 5492ft 118kts
30-Dec-22 16:18 47.960114 -118.146280 87 5501ft 116kts
30-Dec-22 16:19 47.961860 -118.098003 87 5499ft 116kts
30-Dec-22 16:20 47.963591 -118.049856 87 5500ft 115kts
30-Dec-22 16:21 47.965283 -118.002039 87 5502ft 115kts
30-Dec-22 16:22 47.966970 -117.953903 87 5500ft 116kts
30-Dec-22 16:23 47.968640 -117.905842 88 5500ft 116kts
30-Dec-22 16:24 47.970198 -117.860428 88 5501ft 116kts
30-Dec-22 16:25 47.971818 -117.812376 88 5501ft 115kts
30-Dec-22 16:26 47.973414 -117.764516 88 5508ft 117kts
30-Dec-22 16:27 47.975427 -117.714704 85 5372ft 124kts
30-Dec-22 16:28 47.979342 -117.666965 84 4913ft 103kts
30-Dec-22 16:29 47.981356 -117.625900 93 4274ft 90kts
30-Dec-22 16:30 47.981858 -117.590069 88 3661ft 86kts
30-Dec-22 16:31 47.981095 -117.554749 99 3096ft 82kts
30-Dec-22 16:32 47.979517 -117.521020 53 2779ft 80kts
30-Dec-22 16:33 47.993914 -117.536224 231 2566ft 76kts
30-Dec-22 16:34 47.977760 -117.526819 148 2206ft 37kts
30-Dec-22 16:35 47.977149 -117.526899 306 2206ft 7kts
30-Dec-22 16:36 47.977413 -117.526967 2 2206ft 0kts

Navigation Log

Ident Type
Flight plan parsing failed, navigation log unavailable